Time;durP1;ratioP1;P1;durP2;ratioP2;P2;SDS_P1;SDS_P2;PMS_P1;PMS_P2;Temp;Humidity;BMP_temperature;BMP_pressure;BME280_temperature;BME280_humidity;BME280_pressure;Samples;Min_cycle;Max_cycle;Signal;HPM_P1;HPM_P2
2023/08/11 00:00:36;;;;;;;8.52;4.03;;;;;;;26.56;77.11;99905.00;10502427;28;20041;-70
2023/08/11 00:05:38;;;;;;;8.95;3.60;;;;;;;26.61;77.36;99924.03;10502675;28;20513;-70
2023/08/11 00:10:39;;;;;;;9.93;4.25;;;;;;;26.77;77.25;99926.63;10502613;28;20143;-70
2023/08/11 00:15:40;;;;;;;8.98;3.85;;;;;;;26.64;78.24;99920.75;10501866;28;20044;-71
2023/08/11 00:20:41;;;;;;;6.97;4.03;;;;;;;26.51;78.60;99917.88;10500777;28;20040;-71
2023/08/11 00:25:41;;;;;;;12.95;3.95;;;;;;;25.97;79.18;99848.81;10502527;28;20044;-71
2023/08/11 00:30:42;;;;;;;8.05;3.70;;;;;;;26.38;80.03;99928.28;10501348;28;20123;-71
2023/08/11 00:35:43;;;;;;;8.38;3.97;;;;;;;26.34;80.57;99919.03;10501125;28;20048;-71
2023/08/11 00:40:44;;;;;;;6.97;3.70;;;;;;;26.27;81.12;99893.25;10501180;28;20098;-71
2023/08/11 00:45:49;;;;;;;10.70;4.00;;;;;;;25.95;83.25;99851.78;10499576;28;20044;-71
2023/08/11 00:50:49;;;;;;;6.30;3.83;;;;;;;26.22;82.91;99883.19;10501274;28;20130;-71
2023/08/11 00:55:51;;;;;;;7.47;4.22;;;;;;;26.14;82.79;99875.63;10500797;28;20139;-72
2023/08/11 01:00:54;;;;;;;7.72;3.83;;;;;;;26.17;83.46;99891.38;10500173;28;20041;-71
2023/08/11 01:06:18;;;;;;;9.35;4.05;;;;;;;26.24;84.36;99910.16;10500278;28;20391;-71
2023/08/11 01:11:38;;;;;;;9.90;4.10;;;;;;;26.15;84.16;99885.44;10500008;28;20114;-72
2023/08/11 01:16:40;;;;;;;5.82;3.65;;;;;;;25.60;83.18;99797.56;10499431;28;20051;-71
2023/08/11 01:21:41;;;;;;;10.68;4.10;;;;;;;26.05;83.34;99874.59;10499703;28;20059;-71
2023/08/11 01:26:42;;;;;;;11.70;3.97;;;;;;;26.02;83.50;99869.72;10500122;28;20045;-70
2023/08/11 01:31:43;;;;;;;28.10;4.40;;;;;;;26.03;83.29;99888.50;10497999;28;20040;-70
2023/08/11 01:36:44;;;;;;;19.83;3.88;;;;;;;25.91;83.60;99868.97;10467974;28;20049;-70
2023/08/11 01:41:45;;;;;;;32.65;5.03;;;;;;;25.72;84.01;99855.16;10457180;28;20045;-72
2023/08/11 01:46:47;;;;;;;64.05;7.45;;;;;;;25.75;84.73;99865.47;10456845;28;20037;-71
2023/08/11 01:51:48;;;;;;;9.82;4.15;;;;;;;25.90;84.54;99903.50;10469028;28;20044;-72
2023/08/11 01:56:49;;;;;;;15.52;4.75;;;;;;;25.76;84.66;99872.56;10454421;28;20040;-71
2023/08/11 02:01:50;;;;;;;12.27;3.88;;;;;;;25.83;84.40;99880.44;10477384;28;20040;-73
2023/08/11 02:06:50;;;;;;;15.60;4.30;;;;;;;25.77;85.35;99852.41;10491201;28;20075;-71
2023/08/11 02:11:51;;;;;;;17.77;3.97;;;;;;;25.51;85.00;99819.91;10492067;28;20500;-71
2023/08/11 02:16:52;;;;;;;16.02;4.38;;;;;;;25.77;85.30;99857.03;10497503;28;20044;-70
2023/08/11 02:21:53;;;;;;;13.05;3.90;;;;;;;25.92;85.19;99870.59;10497158;28;20044;-71
2023/08/11 02:26:54;;;;;;;32.92;4.65;;;;;;;26.08;84.90;99876.75;10496862;28;20078;-71
2023/08/11 02:31:54;;;;;;;9.75;3.83;;;;;;;25.84;84.35;99836.59;10496970;28;20052;-70
2023/08/11 02:36:55;;;;;;;10.70;3.95;;;;;;;25.78;84.31;99824.09;10496348;28;20083;-70
2023/08/11 02:41:56;;;;;;;9.50;3.88;;;;;;;26.14;84.09;99894.66;10496612;28;20059;-71
2023/08/11 02:46:56;;;;;;;10.02;3.85;;;;;;;26.57;82.48;99941.25;10497078;28;20101;-70
2023/08/11 02:51:57;;;;;;;11.60;4.70;;;;;;;26.56;82.04;99923.25;10496401;28;20048;-70
2023/08/11 02:56:58;;;;;;;12.70;4.05;;;;;;;26.85;81.36;99940.47;10496353;28;20524;-71
2023/08/11 03:02:00;;;;;;;23.80;4.65;;;;;;;27.15;80.44;99944.03;10496229;28;20044;-71
2023/08/11 03:07:01;;;;;;;12.80;3.85;;;;;;;27.21;79.25;99929.25;10494924;28;20047;-71
2023/08/11 03:12:02;;;;;;;13.30;4.07;;;;;;;28.12;76.70;99981.16;10496172;28;20064;-70
2023/08/11 03:17:06;;;;;;;19.10;4.22;;;;;;;28.58;74.05;99925.88;10495370;28;20043;-71
2023/08/11 03:22:07;;;;;;;23.50;4.40;;;;;;;29.01;72.54;99953.00;10495717;28;20510;-71
2023/08/11 03:27:08;;;;;;;16.33;3.40;;;;;;;29.33;70.27;99951.38;10495120;28;20045;-72
2023/08/11 03:32:09;;;;;;;24.70;4.18;;;;;;;29.72;68.97;99934.50;10495988;28;20159;-70
2023/08/11 03:37:09;;;;;;;7.53;3.20;;;;;;;28.77;68.97;99895.75;10495523;28;20541;-71
2023/08/11 03:42:10;;;;;;;6.65;3.28;;;;;;;28.56;70.30;99933.53;10495761;28;20515;-71
2023/08/11 03:47:11;;;;;;;6.90;3.22;;;;;;;28.78;69.52;99937.56;10495244;28;20040;-70
2023/08/11 03:52:12;;;;;;;12.95;3.83;;;;;;;29.33;67.75;99930.31;10495531;28;20068;-70
2023/08/11 03:57:13;;;;;;;14.13;3.40;;;;;;;30.15;64.93;99930.56;10494392;28;20067;-71
2023/08/11 04:02:14;;;;;;;8.43;3.38;;;;;;;30.49;62.56;99932.81;10494277;28;20078;-72
2023/08/11 04:07:14;;;;;;;18.73;3.90;;;;;;;30.24;62.32;99862.97;10494904;28;20041;-71
2023/08/11 04:12:15;;;;;;;29.35;4.63;;;;;;;30.92;61.04;99902.94;10495098;28;20557;-70
2023/08/11 04:17:16;;;;;;;10.07;3.05;;;;;;;31.18;59.90;99912.44;10495098;28;20045;-70
2023/08/11 04:22:17;;;;;;;19.30;3.97;;;;;;;31.23;59.59;99880.19;10502028;28;20059;-70
2023/08/11 04:27:17;;;;;;;7.07;3.35;;;;;;;31.40;57.82;99897.84;10501200;28;20041;-71
2023/08/11 04:32:18;;;;;;;12.38;4.53;;;;;;;31.26;57.13;99854.84;10502215;28;20131;-71
2023/08/11 04:37:19;;;;;;;15.20;3.72;;;;;;;31.74;56.39;99894.38;10500819;28;20056;-71
2023/08/11 04:42:20;;;;;;;13.48;4.38;;;;;;;31.16;56.85;99849.66;10500676;28;20041;-71
2023/08/11 04:47:20;;;;;;;16.50;3.83;;;;;;;31.50;55.59;99901.13;10499929;28;20552;-70
2023/08/11 04:52:21;;;;;;;18.73;6.30;;;;;;;31.91;54.18;99880.69;10501179;28;20131;-76
2023/08/11 04:57:22;;;;;;;25.77;4.50;;;;;;;32.20;52.86;99899.31;10500537;28;20054;-70
2023/08/11 05:02:23;;;;;;;21.40;3.63;;;;;;;32.19;51.73;99888.63;10500559;28;20376;-71
2023/08/11 05:07:24;;;;;;;14.93;2.97;;;;;;;31.44;52.72;99813.75;10499744;28;20048;-71
2023/08/11 05:12:25;;;;;;;55.88;5.13;;;;;;;30.93;53.64;99859.88;10500617;28;20060;-72
2023/08/11 05:17:25;;;;;;;49.03;4.78;;;;;;;30.28;53.86;99820.16;10499492;28;20044;-71
2023/08/11 05:22:26;;;;;;;38.10;5.05;;;;;;;30.36;53.29;99838.56;10499667;28;20404;-71
2023/08/11 05:27:27;;;;;;;34.25;4.57;;;;;;;30.35;52.72;99823.25;10499975;28;20426;-72
2023/08/11 05:32:28;;;;;;;32.45;3.97;;;;;;;29.98;52.10;99755.94;10499185;28;20105;-72
2023/08/11 05:37:28;;;;;;;24.60;4.53;;;;;;;30.62;51.82;99818.72;10500085;28;20067;-72
2023/08/11 05:42:29;;;;;;;41.95;4.53;;;;;;;30.86;50.37;99799.19;10498833;28;20121;-72
2023/08/11 05:47:30;;;;;;;22.73;4.00;;;;;;;30.85;50.21;99798.38;10498126;28;20411;-71
2023/08/11 05:52:31;;;;;;;27.40;4.00;;;;;;;30.97;49.69;99792.31;10498288;28;20410;-72
2023/08/11 05:57:32;;;;;;;39.08;4.55;;;;;;;31.01;48.56;99781.50;10497888;28;20043;-72
2023/08/11 06:02:32;;;;;;;29.25;4.40;;;;;;;31.28;48.51;99769.47;10497398;28;20094;-71
2023/08/11 06:07:33;;;;;;;52.00;4.85;;;;;;;31.42;47.57;99755.63;10497823;28;20123;-70
2023/08/11 06:12:34;;;;;;;55.75;6.00;;;;;;;31.55;46.34;99738.19;10495608;28;20075;-74
2023/08/11 06:17:36;;;;;;;40.90;4.95;;;;;;;31.55;45.83;99749.16;10497792;28;20094;-73
2023/08/11 06:22:37;;;;;;;50.28;5.30;;;;;;;31.42;46.10;99706.22;10497226;28;20399;-74
2023/08/11 06:27:38;;;;;;;71.50;7.22;;;;;;;31.59;44.83;99752.88;10497128;28;20041;-71
2023/08/11 06:32:38;;;;;;;61.97;6.18;;;;;;;31.74;44.80;99793.59;10496801;28;20053;-72
2023/08/11 06:37:39;;;;;;;39.53;5.18;;;;;;;32.02;44.35;99865.53;10495959;28;20458;-70
2023/08/11 06:42:40;;;;;;;25.67;4.07;;;;;;;32.34;44.74;99903.81;10495897;28;20036;-71
2023/08/11 06:47:41;;;;;;;19.48;3.92;;;;;;;32.68;44.42;99922.25;10495798;28;20044;-71
2023/08/11 06:52:41;;;;;;;23.08;3.55;;;;;;;32.42;42.76;99853.53;10496397;28;20137;-71
2023/08/11 06:57:42;;;;;;;15.52;3.50;;;;;;;32.90;42.60;99902.78;10496195;28;20064;-71
2023/08/11 07:02:43;;;;;;;21.10;3.38;;;;;;;32.99;41.85;99872.50;10495892;28;20197;-71
2023/08/11 07:07:44;;;;;;;21.38;3.60;;;;;;;33.37;41.84;99904.72;10495539;28;20190;-71
2023/08/11 07:12:44;;;;;;;22.08;3.53;;;;;;;33.74;41.48;99897.56;10496141;28;20402;-71
2023/08/11 07:17:45;;;;;;;21.27;4.00;;;;;;;34.04;40.41;99864.47;10496534;28;20050;-72
2023/08/11 07:22:46;;;;;;;16.42;3.35;;;;;;;34.52;39.91;99863.06;10495677;28;20044;-71
2023/08/11 07:27:46;;;;;;;16.52;3.40;;;;;;;34.95;39.43;99865.38;10495678;28;20039;-71
2023/08/11 07:32:47;;;;;;;26.60;4.20;;;;;;;34.80;38.68;99856.97;10495293;28;20048;-71
2023/08/11 07:37:48;;;;;;;16.75;3.65;;;;;;;34.98;38.14;99883.19;10495473;28;20037;-72
2023/08/11 07:42:49;;;;;;;40.17;5.15;;;;;;;34.54;37.70;99845.06;10495220;28;20051;-71
2023/08/11 07:47:49;;;;;;;31.05;4.10;;;;;;;34.15;37.70;99807.00;10495397;28;20040;-72
2023/08/11 07:52:50;;;;;;;41.38;5.13;;;;;;;34.61;37.63;99869.31;10497367;28;20087;-74
2023/08/11 07:57:51;;;;;;;56.30;5.18;;;;;;;34.92;37.23;99855.00;10503035;28;20040;-73
2023/08/11 08:02:55;;;;;;;26.25;4.35;;;;;;;35.18;36.55;99818.81;10502387;28;20040;-74
2023/08/11 08:07:56;;;;;;;38.60;5.22;;;;;;;34.92;36.51;99730.81;10501847;28;20518;-72
2023/08/11 08:12:57;;;;;;;29.30;4.43;;;;;;;35.67;35.48;99771.00;10501678;28;20057;-72
2023/08/11 08:17:57;;;;;;;27.85;4.13;;;;;;;35.89;35.13;99780.69;10502291;28;20040;-73
2023/08/11 08:22:58;;;;;;;20.77;4.05;;;;;;;36.08;34.81;99782.84;10502138;28;20047;-72
2023/08/11 08:27:59;;;;;;;26.45;4.43;;;;;;;36.41;34.97;99790.81;10501484;28;20048;-72
2023/08/11 08:33:00;;;;;;;25.92;4.30;;;;;;;36.45;34.31;99771.56;10501865;28;20048;-72
2023/08/11 08:38:01;;;;;;;48.93;5.13;;;;;;;36.88;34.12;99814.94;10502198;28;20487;-72
2023/08/11 08:43:08;;;;;;;23.75;4.53;;;;;;;37.00;33.55;99808.53;10501597;28;20071;-72
2023/08/11 08:48:16;;;;;;;30.05;4.53;;;;;;;36.70;32.91;99752.81;10501385;28;20040;-74
2023/08/11 08:53:18;;;;;;;37.08;4.90;;;;;;;37.03;33.26;99810.59;10501383;28;20048;-73
2023/08/11 08:58:19;;;;;;;29.50;4.80;;;;;;;36.81;33.04;99737.28;10499366;28;20036;-73
2023/08/11 09:03:20;;;;;;;20.57;3.80;;;;;;;36.92;32.44;99749.41;10500833;28;20131;-74
2023/08/11 09:08:21;;;;;;;34.03;5.30;;;;;;;37.28;33.17;99799.31;10500291;28;20511;-73
2023/08/11 09:13:22;;;;;;;28.40;4.67;;;;;;;37.47;32.75;99785.50;10500796;28;20159;-77
2023/08/11 09:18:22;;;;;;;30.47;4.03;;;;;;;37.19;32.43;99719.19;10499511;28;20136;-73
2023/08/11 09:23:24;;;;;;;32.43;4.70;;;;;;;37.45;32.27;99746.25;10500296;28;20033;-73
2023/08/11 09:28:25;;;;;;;33.58;4.72;;;;;;;37.66;32.22;99757.81;10500179;28;20048;-75
2023/08/11 09:33:26;;;;;;;39.88;5.00;;;;;;;37.47;32.52;99713.47;10498673;28;20127;-73
2023/08/11 09:38:28;;;;;;;34.80;4.33;;;;;;;37.59;31.57;99704.22;10497620;28;20127;-73
2023/08/11 09:43:32;;;;;;;30.48;4.95;;;;;;;37.96;31.61;99751.66;10498792;28;20041;-73
2023/08/11 09:48:32;;;;;;;33.90;4.40;;;;;;;38.09;31.41;99753.13;10499219;28;20040;-72
2023/08/11 09:53:33;;;;;;;34.07;5.77;;;;;;;37.87;31.36;99712.25;10497811;28;20044;-72
2023/08/11 09:58:38;;;;;;;44.07;5.47;;;;;;;38.28;31.43;99771.69;10499526;28;20123;-73
2023/08/11 10:03:44;;;;;;;43.75;5.32;;;;;;;38.11;31.71;99708.38;10498741;28;20395;-73
2023/08/11 10:08:49;;;;;;;31.92;5.10;;;;;;;38.52;31.45;99778.06;10497074;28;20412;-73
2023/08/11 10:13:50;;;;;;;40.80;5.68;;;;;;;37.87;31.02;99670.66;10496463;28;20046;-73
2023/08/11 10:18:51;;;;;;;29.98;5.45;;;;;;;38.54;30.94;99765.44;10496900;28;20420;-72
2023/08/11 10:23:55;;;;;;;29.77;5.27;;;;;;;37.98;30.82;99688.34;10497605;28;20032;-75
2023/08/11 10:28:56;;;;;;;29.77;5.38;;;;;;;38.50;30.93;99756.25;10496977;28;20044;-73
2023/08/11 10:33:58;;;;;;;38.83;5.78;;;;;;;38.52;30.75;99733.66;10496954;28;20047;-71
2023/08/11 10:39:01;;;;;;;33.40;5.40;;;;;;;38.74;30.58;99741.19;10496720;28;20040;-74
2023/08/11 10:44:04;;;;;;;33.80;5.85;;;;;;;38.70;29.72;99709.78;10496710;28;20051;-73
2023/08/11 10:49:08;;;;;;;30.30;5.57;;;;;;;39.03;29.64;99730.50;10497384;28;20047;-72
2023/08/11 10:54:11;;;;;;;43.75;6.43;;;;;;;38.70;29.38;99661.78;10495752;28;20045;-73
2023/08/11 10:59:22;;;;;;;35.97;5.95;;;;;;;38.79;28.83;99687.28;10496921;28;20442;-73
2023/08/11 11:04:31;;;;;;;39.25;6.93;;;;;;;39.04;27.62;99738.47;10496749;28;20040;-73
2023/08/11 11:09:31;;;;;;;35.88;6.13;;;;;;;38.65;28.26;99690.66;10496081;28;20055;-73
2023/08/11 11:14:32;;;;;;;32.97;5.30;;;;;;;38.95;28.12;99724.06;10495438;28;20483;-73
2023/08/11 11:19:33;;;;;;;26.83;5.23;;;;;;;38.64;28.21;99668.84;10496143;28;20075;-72
2023/08/11 11:24:33;;;;;;;42.77;6.27;;;;;;;38.90;28.04;99710.50;10495765;28;20484;-72
2023/08/11 11:29:37;;;;;;;39.03;5.93;;;;;;;38.99;28.26;99713.81;10502528;28;20044;-73
2023/08/11 11:34:39;;;;;;;46.83;6.57;;;;;;;38.65;28.67;99662.09;10503815;28;20484;-74
2023/08/11 11:39:40;;;;;;;37.88;6.20;;;;;;;38.68;27.75;99653.84;10503331;28;20624;-77
2023/08/11 11:44:42;;;;;;;39.03;6.38;;;;;;;38.76;27.78;99660.28;10503978;28;20033;-73
2023/08/11 11:49:43;;;;;;;42.40;6.07;;;;;;;39.07;27.99;99711.09;10503350;28;20048;-74
2023/08/11 11:54:43;;;;;;;45.60;7.03;;;;;;;38.72;27.65;99642.78;10503610;28;20514;-71
2023/08/11 11:59:47;;;;;;;56.37;6.27;;;;;;;38.87;27.74;99697.38;10503178;28;20044;-73
2023/08/11 12:04:48;;;;;;;36.47;5.70;;;;;;;38.79;28.12;99684.53;10502603;28;20044;-72
2023/08/11 12:09:53;;;;;;;45.13;7.60;;;;;;;38.58;28.34;99708.00;10501970;28;20060;-72
2023/08/11 12:15:01;;;;;;;44.38;6.72;;;;;;;38.48;28.47;99703.09;10502563;28;20634;-73
2023/08/11 12:20:08;;;;;;;46.80;6.57;;;;;;;38.43;28.92;99683.19;10501718;28;20032;-73
2023/08/11 12:25:10;;;;;;;32.28;5.85;;;;;;;38.55;29.03;99671.88;10502110;28;20048;-72
2023/08/11 12:30:11;;;;;;;39.58;6.25;;;;;;;38.63;28.21;99681.91;10501368;28;20400;-76
2023/08/11 12:35:12;;;;;;;;;;;;;;;38.73;27.90;99686.03;10502582;28;20097;-75
2023/08/11 12:40:13;;;;;;;49.33;7.13;;;;;;;38.53;29.06;99688.91;10500150;28;20403;-72
2023/08/11 12:45:14;;;;;;;45.57;6.87;;;;;;;38.47;29.26;99670.16;10501877;28;20496;-72
2023/08/11 12:50:14;;;;;;;43.97;6.27;;;;;;;37.99;29.39;99666.97;10500954;28;20298;-73
2023/08/11 12:55:15;;;;;;;46.03;7.20;;;;;;;37.77;29.57;99638.03;10500660;28;20037;-73
2023/08/11 13:00:17;;;;;;;53.17;7.33;;;;;;;37.91;29.19;99605.81;10499565;28;20117;-72
2023/08/11 13:05:18;;;;;;;71.15;9.02;;;;;;;38.27;28.84;99611.19;10500573;28;20051;-73
2023/08/11 13:10:20;;;;;;;53.23;6.40;;;;;;;37.73;29.11;99573.44;10500129;28;20496;-74
2023/08/11 13:15:21;;;;;;;46.30;6.15;;;;;;;37.68;29.20;99591.94;10500464;28;20085;-72
2023/08/11 13:20:22;;;;;;;49.43;7.23;;;;;;;38.02;29.15;99644.81;10499385;28;20033;-73
2023/08/11 13:25:23;;;;;;;33.07;7.07;;;;;;;37.50;29.15;99584.50;10499817;28;20036;-72
2023/08/11 13:30:24;;;;;;;39.57;6.47;;;;;;;37.71;28.66;99645.06;10498956;28;20040;-74
2023/08/11 13:35:25;;;;;;;52.15;8.07;;;;;;;37.74;28.18;99670.06;10499631;28;20047;-76
2023/08/11 13:40:26;;;;;;;42.20;6.53;;;;;;;37.55;28.47;99667.31;10499700;28;20089;-74
2023/08/11 13:45:27;;;;;;;40.63;6.07;;;;;;;37.62;28.63;99700.69;10498979;28;20580;-73
2023/08/11 13:50:27;;;;;;;48.80;7.83;;;;;;;36.71;28.23;99589.22;10497533;28;20045;-74
2023/08/11 13:55:28;;;;;;;49.20;7.33;;;;;;;37.41;28.66;99698.28;10497485;28;20041;-74
2023/08/11 14:00:30;;;;;;;44.67;7.67;;;;;;;37.34;28.64;99709.22;10498413;28;20036;-73
2023/08/11 14:05:30;;;;;;;38.75;6.55;;;;;;;37.13;28.41;99685.44;10498086;28;20450;-72
2023/08/11 14:10:31;;;;;;;46.90;7.20;;;;;;;37.10;28.84;99704.75;10497961;28;20075;-73
2023/08/11 14:15:32;;;;;;;39.93;5.90;;;;;;;36.93;29.51;99701.19;10497923;28;20049;-73
2023/08/11 14:20:33;;;;;;;36.83;5.57;;;;;;;36.70;29.48;99695.50;10497094;28;20136;-74
2023/08/11 14:25:34;;;;;;;44.77;6.57;;;;;;;36.74;30.08;99715.78;10497884;28;20040;-74
2023/08/11 14:30:35;;;;;;;48.67;6.10;;;;;;;36.55;30.46;99708.19;10497430;28;20442;-73
2023/08/11 14:35:39;;;;;;;55.53;6.73;;;;;;;36.32;30.83;99710.78;10496543;28;20036;-73
2023/08/11 14:40:40;;;;;;;42.22;5.57;;;;;;;36.13;30.93;99705.16;10495782;28;20039;-77
2023/08/11 14:45:41;;;;;;;30.33;4.93;;;;;;;35.99;30.92;99710.25;10496717;28;20407;-73
2023/08/11 14:50:42;;;;;;;57.63;7.20;;;;;;;35.87;31.07;99703.66;10496438;28;20072;-73
2023/08/11 14:55:43;;;;;;;34.42;5.90;;;;;;;35.80;31.06;99694.38;10495762;28;20050;-73
2023/08/11 15:00:44;;;;;;;37.80;5.22;;;;;;;35.59;31.28;99694.59;10495363;28;20120;-74
2023/08/11 15:05:45;;;;;;;48.42;5.53;;;;;;;35.18;31.19;99636.63;10496139;28;20095;-71
2023/08/11 15:10:45;;;;;;;33.20;4.85;;;;;;;35.47;31.25;99703.69;10496050;28;20192;-74
2023/08/11 15:15:48;;;;;;;44.47;5.78;;;;;;;35.35;31.23;99706.50;10495263;28;20063;-72
2023/08/11 15:20:49;;;;;;;37.42;6.00;;;;;;;35.25;31.58;99705.03;10495410;28;20044;-72
2023/08/11 15:25:49;;;;;;;31.27;5.35;;;;;;;34.97;31.95;99696.66;10495643;28;20044;-72
2023/08/11 15:30:51;;;;;;;36.92;5.30;;;;;;;34.90;32.34;99705.53;10495548;28;20040;-72
2023/08/11 15:35:52;;;;;;;51.13;6.60;;;;;;;34.29;32.73;99622.78;10496122;28;20054;-72
2023/08/11 15:40:53;;;;;;;41.63;5.97;;;;;;;34.35;33.29;99668.28;10495574;28;20123;-72
2023/08/11 15:45:54;;;;;;;40.55;5.63;;;;;;;34.53;34.05;99733.09;10495592;28;20043;-72
2023/08/11 15:50:57;;;;;;;31.40;6.35;;;;;;;34.28;34.95;99720.41;10495131;28;20094;-73
2023/08/11 15:55:58;;;;;;;36.20;5.15;;;;;;;34.19;34.93;99728.78;10495034;28;20049;-73
2023/08/11 16:01:02;;;;;;;44.70;5.63;;;;;;;33.48;35.60;99638.88;10494962;28;20044;-72
2023/08/11 16:06:03;;;;;;;55.28;6.75;;;;;;;33.88;36.32;99718.22;10494874;28;20036;-72
2023/08/11 16:11:04;;;;;;;47.15;7.35;;;;;;;33.58;37.39;99720.28;10494968;28;20056;-73
2023/08/11 16:16:06;;;;;;;37.55;6.28;;;;;;;33.48;37.96;99731.72;10499670;28;20410;-73
2023/08/11 16:21:07;;;;;;;39.53;7.05;;;;;;;33.31;38.65;99735.38;10502323;28;20107;-72
2023/08/11 16:26:08;;;;;;;36.95;5.22;;;;;;;33.16;39.16;99740.34;10502148;28;20041;-73
2023/08/11 16:31:11;;;;;;;56.40;6.72;;;;;;;32.85;39.40;99718.66;10501509;28;20048;-73
2023/08/11 16:36:12;;;;;;;37.38;5.47;;;;;;;32.77;39.73;99748.97;10502492;28;20115;-72
2023/08/11 16:41:13;;;;;;;58.78;6.40;;;;;;;32.20;40.22;99704.19;10500867;28;20123;-73
2023/08/11 16:46:15;;;;;;;44.88;5.63;;;;;;;32.55;41.13;99791.25;10500731;28;20674;-72
2023/08/11 16:51:16;;;;;;;43.92;6.07;;;;;;;32.38;41.65;99800.34;10501660;28;20399;-73
2023/08/11 16:56:19;;;;;;;29.73;4.95;;;;;;;32.17;42.51;99806.53;10501274;28;20040;-72
2023/08/11 17:01:20;;;;;;;29.13;5.32;;;;;;;32.01;42.93;99803.47;10500197;28;20040;-72
2023/08/11 17:06:21;;;;;;;41.13;5.80;;;;;;;31.92;43.27;99807.34;10501103;28;20040;-72
2023/08/11 17:11:21;;;;;;;46.05;6.50;;;;;;;31.78;43.58;99813.78;10500156;28;20408;-73
2023/08/11 17:16:22;;;;;;;40.85;5.63;;;;;;;31.38;44.14;99778.22;10500657;28;20124;-72
2023/08/11 17:21:23;;;;;;;37.15;4.88;;;;;;;31.45;44.65;99807.13;10499357;28;20044;-72
2023/08/11 17:26:24;;;;;;;36.28;4.80;;;;;;;31.34;44.54;99821.16;10499433;28;20043;-72
2023/08/11 17:31:24;;;;;;;32.45;5.55;;;;;;;30.69;44.78;99731.34;10499361;28;20040;-73
2023/08/11 17:36:26;;;;;;;44.97;5.80;;;;;;;31.09;45.45;99813.66;10499185;28;20496;-75
2023/08/11 17:41:27;;;;;;;46.70;6.25;;;;;;;30.48;45.57;99736.59;10499260;28;20046;-72
2023/08/11 17:46:27;;;;;;;44.65;6.25;;;;;;;30.83;45.69;99803.38;10498293;28;20539;-70
2023/08/11 17:51:28;;;;;;;26.58;4.22;;;;;;;30.64;45.58;99792.63;10498564;28;20067;-72
2023/08/11 17:56:29;;;;;;;24.27;5.68;;;;;;;30.10;45.60;99734.28;10498417;28;20399;-74
2023/08/11 18:01:30;;;;;;;41.50;6.25;;;;;;;29.93;45.39;99715.78;10498472;28;20557;-73
2023/08/11 18:06:31;;;;;;;45.97;6.70;;;;;;;30.27;45.61;99795.78;10498116;28;20439;-72
2023/08/11 18:11:33;;;;;;;37.30;6.43;;;;;;;30.12;45.26;99808.72;10497809;28;20068;-73
2023/08/11 18:16:34;;;;;;;23.10;5.20;;;;;;;30.02;44.75;99781.59;10497436;28;20041;-72
2023/08/11 18:21:35;;;;;;;29.88;5.43;;;;;;;29.91;44.31;99796.63;10496469;28;20044;-72
2023/08/11 18:26:36;;;;;;;33.60;5.28;;;;;;;29.82;44.41;99818.47;10497847;28;20041;-73
2023/08/11 18:31:36;;;;;;;37.40;5.18;;;;;;;29.73;44.53;99807.44;10496487;28;20041;-73
2023/08/11 18:36:37;;;;;;;24.73;4.68;;;;;;;29.54;44.42;99807.56;10496934;28;20377;-72
2023/08/11 18:41:38;;;;;;;16.85;3.95;;;;;;;29.49;44.60;99806.88;10497569;28;20040;-73
2023/08/11 18:46:39;;;;;;;15.35;3.67;;;;;;;29.42;44.47;99814.69;10495346;28;20044;-72
2023/08/11 18:51:40;;;;;;;17.52;3.55;;;;;;;29.32;44.70;99807.50;10496554;28;20048;-72
2023/08/11 18:56:41;;;;;;;23.77;3.80;;;;;;;29.31;44.90;99816.81;10497001;28;20036;-72
2023/08/11 19:01:41;;;;;;;24.38;4.32;;;;;;;29.21;45.01;99825.25;10496958;28;20078;-77
2023/08/11 19:06:42;;;;;;;19.50;3.85;;;;;;;29.04;45.04;99828.59;10496222;28;20127;-72
2023/08/11 19:11:43;;;;;;;25.50;4.68;;;;;;;28.73;45.28;99809.19;10495984;28;20083;-73
2023/08/11 19:16:44;;;;;;;22.23;4.22;;;;;;;28.46;45.72;99772.53;10496012;28;20117;-72
2023/08/11 19:21:45;;;;;;;24.67;3.83;;;;;;;28.40;45.83;99773.69;10495766;28;20071;-73
2023/08/11 19:26:45;;;;;;;12.07;3.45;;;;;;;28.64;46.07;99833.69;10495943;28;20089;-73
2023/08/11 19:31:46;;;;;;;18.50;3.15;;;;;;;27.93;46.91;99732.69;10495637;28;20044;-72
2023/08/11 19:36:47;;;;;;;22.50;4.15;;;;;;;27.93;47.36;99748.28;10494937;28;20679;-73
2023/08/11 19:41:48;;;;;;;21.02;4.32;;;;;;;28.47;48.01;99856.09;10494804;28;20028;-73
2023/08/11 19:46:50;;;;;;;25.50;5.40;;;;;;;27.99;48.65;99780.63;10496122;28;20049;-72
2023/08/11 19:51:51;;;;;;;17.40;5.45;;;;;;;27.99;49.28;99807.13;10502233;28;20430;-71
2023/08/11 19:56:52;;;;;;;28.10;6.88;;;;;;;28.23;50.03;99872.56;10502523;28;20037;-73
2023/08/11 20:01:53;;;;;;;20.60;7.35;;;;;;;28.25;50.51;99873.09;10502531;28;20032;-72
2023/08/11 20:06:54;;;;;;;21.00;6.40;;;;;;;28.05;50.98;99849.63;10503303;28;20040;-72
2023/08/11 20:11:56;;;;;;;31.45;7.60;;;;;;;28.05;51.47;99871.47;10502789;28;20064;-72
2023/08/11 20:16:57;;;;;;;30.63;7.33;;;;;;;27.81;51.65;99844.25;10501213;28;20052;-72
2023/08/11 20:21:59;;;;;;;24.83;7.22;;;;;;;28.07;53.20;99903.97;10501701;28;20115;-72
2023/08/11 20:26:59;;;;;;;17.70;5.88;;;;;;;27.88;53.20;99865.72;10502250;28;20131;-73
2023/08/11 20:32:03;;;;;;;27.83;7.18;;;;;;;27.08;53.71;99771.78;10502639;28;20043;-72
2023/08/11 20:37:04;;;;;;;24.58;6.22;;;;;;;27.75;54.07;99916.34;10501195;28;20040;-72
2023/08/11 20:42:04;;;;;;;28.60;6.72;;;;;;;27.79;54.24;99927.53;10501610;28;20123;-72
2023/08/11 20:47:05;;;;;;;14.77;5.80;;;;;;;27.55;54.69;99887.41;10501259;28;20039;-72
2023/08/11 20:52:06;;;;;;;19.88;5.95;;;;;;;27.08;55.06;99831.78;10500534;28;20121;-70
2023/08/11 20:57:06;;;;;;;28.40;6.80;;;;;;;27.54;55.28;99919.34;10500276;28;20037;-70
2023/08/11 21:02:08;;;;;;;25.42;5.32;;;;;;;27.53;55.28;99915.00;10500166;28;20052;-71
2023/08/11 21:07:09;;;;;;;25.38;5.32;;;;;;;27.47;55.39;99909.88;10500167;28;20510;-71
2023/08/11 21:12:09;;;;;;;19.58;5.35;;;;;;;27.37;55.50;99910.78;10500765;28;20053;-71
2023/08/11 21:17:10;;;;;;;20.35;5.45;;;;;;;27.40;55.61;99912.13;10499617;28;20082;-71
2023/08/11 21:22:11;;;;;;;22.13;5.47;;;;;;;27.30;55.36;99886.59;10499354;28;20119;-71
2023/08/11 21:27:11;;;;;;;15.85;4.22;;;;;;;27.29;55.77;99893.19;10499923;28;20037;-71
2023/08/11 21:32:12;;;;;;;14.77;4.53;;;;;;;26.69;55.80;99824.56;10499703;28;20048;-76
2023/08/11 21:37:13;;;;;;;10.88;3.92;;;;;;;26.89;56.26;99893.56;10498312;28;20094;-71
2023/08/11 21:42:13;;;;;;;13.48;3.38;;;;;;;26.85;56.51;99904.22;10498592;28;20037;-71
2023/08/11 21:47:14;;;;;;;9.57;3.72;;;;;;;26.74;56.49;99895.31;10499516;28;20052;-71
2023/08/11 21:52:15;;;;;;;9.75;3.72;;;;;;;26.61;56.51;99885.91;10498771;28;20435;-72
2023/08/11 21:57:16;;;;;;;7.35;3.45;;;;;;;26.40;56.56;99870.81;10499377;28;20089;-71
2023/08/11 22:02:16;;;;;;;16.20;3.50;;;;;;;26.43;56.96;99867.50;10498447;28;20488;-71
2023/08/11 22:07:17;;;;;;;10.40;3.90;;;;;;;26.06;57.08;99817.16;10498046;28;20075;-71
2023/08/11 22:12:19;;;;;;;9.32;3.20;;;;;;;26.44;57.03;99871.03;10497222;28;20496;-71
2023/08/11 22:17:20;;;;;;;10.10;3.28;;;;;;;26.13;57.19;99819.56;10498793;28;20448;-71
2023/08/11 22:22:20;;;;;;;9.25;3.10;;;;;;;26.40;57.52;99863.44;10497998;28;20123;-71
2023/08/11 22:27:21;;;;;;;5.97;3.13;;;;;;;26.43;57.81;99892.03;10495603;28;20045;-71
2023/08/11 22:32:22;;;;;;;11.15;3.60;;;;;;;25.94;57.94;99819.44;10496564;28;20033;-71
2023/08/11 22:37:23;;;;;;;10.75;3.47;;;;;;;26.25;58.58;99885.34;10497182;28;20070;-71
2023/08/11 22:42:26;;;;;;;8.70;3.22;;;;;;;26.22;58.66;99874.22;10496915;28;20440;-71
2023/08/11 22:47:27;;;;;;;10.68;3.50;;;;;;;25.94;58.66;99822.97;10496784;28;20040;-71
2023/08/11 22:52:28;;;;;;;10.70;3.58;;;;;;;26.38;59.17;99887.44;10496604;28;20043;-71
2023/08/11 22:57:28;;;;;;;13.20;3.38;;;;;;;26.29;59.08;99893.75;10496955;28;20040;-75
2023/08/11 23:02:29;;;;;;;7.13;3.33;;;;;;;26.21;59.14;99873.41;10495995;28;20067;-71
2023/08/11 23:07:30;;;;;;;13.10;3.80;;;;;;;25.92;59.83;99848.81;10496250;28;20094;-71